createdAt,value
2019-03-23T00:00:22.782Z,410.40
2019-03-23T00:01:22.751Z,428.50
2019-03-23T00:02:22.722Z,329.60
2019-03-23T00:03:22.693Z,335.70
2019-03-23T00:04:22.662Z,274.10
2019-03-23T00:05:22.632Z,233.60
2019-03-23T00:06:30.453Z,202.90
2019-03-23T00:07:22.576Z,206.10
2019-03-23T00:08:22.545Z,180.60
2019-03-23T00:09:22.517Z,195.90
2019-03-23T00:10:22.484Z,258.80
2019-03-23T00:11:22.455Z,230.30
2019-03-23T00:12:22.426Z,266.60
2019-03-23T00:13:22.395Z,242.50
2019-03-23T00:14:22.366Z,200.80
2019-03-23T00:15:22.337Z,213.90
2019-03-23T00:16:22.306Z,323.10
2019-03-23T00:17:22.278Z,260.00
2019-03-23T00:18:22.247Z,443.00
2019-03-23T00:19:22.219Z,985.10
2019-03-23T00:20:22.190Z,891.40
2019-03-23T00:21:22.158Z,1062.40
2019-03-23T00:22:22.127Z,1008.60
2019-03-23T00:23:22.101Z,1059.60
2019-03-23T00:24:22.068Z,911.90
2019-03-23T00:25:22.039Z,476.30
2019-03-23T00:26:22.008Z,693.50
2019-03-23T00:27:21.980Z,916.30
2019-03-23T00:28:21.950Z,446.80
2019-03-23T00:29:21.919Z,815.10
2019-03-23T00:30:21.889Z,732.70
2019-03-23T00:31:21.862Z,1000.70
2019-03-23T00:32:21.830Z,889.60
2019-03-23T00:33:21.799Z,711.50
2019-03-23T00:34:21.769Z,653.70
2019-03-23T00:35:21.742Z,914.30
2019-03-23T00:36:21.710Z,1065.20
2019-03-23T00:37:21.681Z,781.70
2019-03-23T00:38:21.650Z,998.70
2019-03-23T00:39:21.618Z,573.00
2019-03-23T00:40:21.590Z,779.40
2019-03-23T00:41:21.560Z,1039.70
2019-03-23T00:42:21.530Z,853.60
2019-03-23T00:43:21.501Z,927.40
2019-03-23T00:44:21.470Z,692.50
2019-03-23T00:45:21.441Z,508.00
2019-03-23T00:46:21.409Z,280.10
2019-03-23T00:47:21.381Z,235.80
2019-03-23T00:48:21.354Z,227.80
2019-03-23T00:49:21.319Z,224.70
2019-03-23T00:50:21.289Z,239.40
2019-03-23T00:51:21.261Z,290.00
2019-03-23T00:52:21.230Z,226.20
2019-03-23T00:53:21.200Z,263.40
2019-03-23T00:54:21.169Z,218.30
2019-03-23T00:55:21.141Z,181.80
2019-03-23T00:56:21.110Z,182.30
2019-03-23T00:57:21.082Z,224.20
2019-03-23T00:58:21.049Z,188.00
2019-03-23T00:59:21.019Z,198.60
2019-03-23T01:00:20.990Z,176.90
2019-03-23T01:01:20.958Z,289.90
2019-03-23T01:02:20.928Z,320.60
2019-03-23T01:03:20.898Z,235.50
2019-03-23T01:04:20.870Z,323.60
2019-03-23T01:05:20.838Z,289.00
2019-03-23T01:06:20.808Z,284.90
2019-03-23T01:07:20.778Z,241.20
2019-03-23T01:08:20.748Z,224.00
2019-03-23T01:09:20.717Z,217.70
2019-03-23T01:10:20.687Z,211.50
2019-03-23T01:11:20.656Z,720.10
2019-03-23T01:12:20.628Z,296.40
2019-03-23T01:13:20.597Z,327.10
2019-03-23T01:14:20.566Z,447.40
2019-03-23T01:15:20.536Z,301.50
2019-03-23T01:16:20.506Z,334.30
2019-03-23T01:17:20.477Z,261.00
2019-03-23T01:18:20.445Z,212.00
2019-03-23T01:19:20.416Z,211.00
2019-03-23T01:20:20.384Z,213.10
2019-03-23T01:21:20.354Z,198.30
2019-03-23T01:22:20.323Z,225.90
2019-03-23T01:23:20.294Z,242.00
2019-03-23T01:24:20.265Z,278.20
2019-03-23T01:25:20.945Z,648.30
2019-03-23T01:26:20.203Z,821.30
2019-03-23T01:27:20.173Z,1081.50
2019-03-23T01:28:20.143Z,928.00
2019-03-23T01:29:20.111Z,808.80
2019-03-23T01:30:20.081Z,1023.70
2019-03-23T01:31:20.051Z,683.90
2019-03-23T01:32:20.023Z,901.60
2019-03-23T01:33:19.991Z,988.70
2019-03-23T01:34:19.962Z,426.60
2019-03-23T01:35:19.929Z,619.60
2019-03-23T01:36:19.900Z,550.30
2019-03-23T01:37:19.873Z,496.80
2019-03-23T01:38:19.837Z,431.90
2019-03-23T01:39:19.808Z,424.50
2019-03-23T01:40:19.778Z,464.90
2019-03-23T01:41:19.750Z,587.30
2019-03-23T01:42:19.718Z,585.80
2019-03-23T01:43:19.688Z,898.30
2019-03-23T01:44:19.658Z,628.20
2019-03-23T01:45:19.633Z,402.70
2019-03-23T01:46:19.596Z,506.40
2019-03-23T01:47:19.565Z,494.30
2019-03-23T01:48:19.539Z,340.00
2019-03-23T01:49:19.505Z,308.80
2019-03-23T01:50:19.474Z,576.90
2019-03-23T01:51:19.445Z,613.00
2019-03-23T01:52:19.415Z,428.00
2019-03-23T01:53:19.386Z,739.00
2019-03-23T01:54:19.352Z,557.20
2019-03-23T01:55:19.322Z,327.50
2019-03-23T01:56:19.295Z,394.00
2019-03-23T01:57:19.267Z,347.10
2019-03-23T01:58:19.232Z,338.50
2019-03-23T01:59:19.200Z,292.10
2019-03-23T02:00:19.172Z,325.20
2019-03-23T02:01:19.141Z,589.80
2019-03-23T02:02:19.110Z,602.20
2019-03-23T02:03:19.080Z,895.90
2019-03-23T02:04:19.048Z,850.30
2019-03-23T02:05:19.019Z,665.70
2019-03-23T02:06:18.988Z,954.50
2019-03-23T02:07:18.958Z,690.70
2019-03-23T02:08:18.927Z,460.40
2019-03-23T02:09:18.897Z,656.20
2019-03-23T02:10:18.867Z,588.40
2019-03-23T02:11:18.837Z,519.70
2019-03-23T02:12:18.807Z,605.80
2019-03-23T02:13:18.777Z,637.50
2019-03-23T02:14:18.745Z,725.20
2019-03-23T02:15:18.714Z,516.30
2019-03-23T02:16:18.685Z,659.70
2019-03-23T02:17:18.655Z,990.20
2019-03-23T02:18:18.629Z,878.80
2019-03-23T02:19:18.601Z,794.30
2019-03-23T02:20:18.562Z,851.00
2019-03-23T02:21:18.532Z,1138.70
2019-03-23T02:22:18.506Z,653.60
2019-03-23T02:23:18.471Z,560.00
2019-03-23T02:24:18.442Z,637.00
2019-03-23T02:25:18.410Z,549.30
2019-03-23T02:26:18.379Z,568.00
2019-03-23T02:27:18.351Z,540.50
2019-03-23T02:28:18.327Z,553.30
2019-03-23T02:29:18.289Z,708.10
2019-03-23T02:30:18.262Z,775.00
2019-03-23T02:31:18.229Z,710.60
2019-03-23T02:32:18.198Z,576.40
2019-03-23T02:33:18.169Z,843.00
2019-03-23T02:34:18.138Z,674.20
2019-03-23T02:35:18.114Z,1009.10
2019-03-23T02:36:18.077Z,942.40
2019-03-23T02:37:27.691Z,1189.40
2019-03-23T02:38:18.017Z,1201.80
2019-03-23T02:39:18.005Z,1215.00
2019-03-23T02:40:17.960Z,1126.00
2019-03-23T02:41:17.936Z,1196.00
2019-03-23T02:42:17.892Z,1358.30
2019-03-23T02:43:17.864Z,1328.10
2019-03-23T02:44:17.837Z,1422.90
2019-03-23T02:45:17.806Z,1200.10
2019-03-23T02:46:17.778Z,1191.50
2019-03-23T02:47:17.743Z,875.00
2019-03-23T02:48:17.721Z,910.40
2019-03-23T02:49:17.684Z,992.60
2019-03-23T02:50:17.653Z,757.20
2019-03-23T02:51:17.621Z,687.00
2019-03-23T02:52:17.591Z,810.70
2019-03-23T02:53:17.560Z,863.50
2019-03-23T02:54:17.530Z,1157.40
2019-03-23T02:55:17.499Z,829.30
2019-03-23T02:56:17.470Z,777.80
2019-03-23T02:57:17.441Z,833.70
2019-03-23T02:58:17.407Z,702.20
2019-03-23T02:59:17.378Z,627.40
2019-03-23T03:00:17.348Z,596.80
2019-03-23T03:01:17.327Z,895.70
2019-03-23T03:02:17.288Z,1037.00
2019-03-23T03:03:17.257Z,1027.10
2019-03-23T03:04:17.237Z,1025.30
2019-03-23T03:05:17.198Z,822.40
2019-03-23T03:06:17.166Z,952.60
2019-03-23T03:07:17.138Z,974.80
2019-03-23T03:08:17.107Z,908.80
2019-03-23T03:09:17.076Z,977.70
2019-03-23T03:10:17.045Z,957.60
2019-03-23T03:11:17.014Z,905.20
2019-03-23T03:12:16.985Z,634.40
2019-03-23T03:13:16.955Z,747.20
2019-03-23T03:14:16.922Z,820.60
2019-03-23T03:15:16.893Z,747.30
2019-03-23T03:16:16.863Z,759.30
2019-03-23T03:17:16.835Z,438.10
2019-03-23T03:18:16.805Z,919.60
2019-03-23T03:19:16.770Z,478.00
2019-03-23T03:20:16.740Z,520.20
2019-03-23T03:21:16.717Z,905.10
2019-03-23T03:22:16.693Z,691.30
2019-03-23T03:23:16.655Z,681.70
2019-03-23T03:24:16.620Z,399.90
2019-03-23T03:25:16.589Z,574.30
2019-03-23T03:26:16.569Z,700.00
2019-03-23T03:27:16.546Z,571.60
2019-03-23T03:28:16.497Z,601.30
2019-03-23T03:29:16.470Z,491.50
2019-03-23T03:30:16.461Z,733.90
2019-03-23T03:31:16.407Z,523.10
2019-03-23T03:32:16.377Z,637.30
2019-03-23T03:33:16.353Z,505.50
2019-03-23T03:34:16.315Z,652.10
2019-03-23T03:35:16.286Z,345.00
2019-03-23T03:36:16.254Z,590.30
2019-03-23T03:37:16.225Z,586.80
2019-03-23T03:38:16.195Z,455.60
2019-03-23T03:39:16.163Z,819.50
2019-03-23T03:40:16.137Z,460.70
2019-03-23T03:41:16.105Z,1031.60
2019-03-23T03:42:16.077Z,621.60
2019-03-23T03:43:16.043Z,512.60
2019-03-23T03:44:16.013Z,582.20
2019-03-23T03:45:15.984Z,632.50
2019-03-23T03:46:15.956Z,492.20
2019-03-23T03:47:15.921Z,386.40
2019-03-23T03:48:15.893Z,284.30
2019-03-23T03:49:15.865Z,408.00
2019-03-23T03:50:15.831Z,462.70
2019-03-23T03:51:15.821Z,595.20
2019-03-23T03:52:15.770Z,782.70
2019-03-23T03:53:15.747Z,519.30
2019-03-23T03:54:15.712Z,776.10
2019-03-23T03:55:15.678Z,687.90
2019-03-23T03:56:15.649Z,402.10
2019-03-23T03:57:15.793Z,930.40
2019-03-23T03:58:15.590Z,699.30
2019-03-23T03:59:15.557Z,927.50
2019-03-23T04:00:15.527Z,1103.70
2019-03-23T04:01:15.500Z,1069.40
2019-03-23T04:02:15.467Z,1095.10
2019-03-23T04:03:15.461Z,1075.30
2019-03-23T04:04:15.424Z,955.00
2019-03-23T04:05:15.401Z,996.60
2019-03-23T04:06:15.349Z,1104.90
2019-03-23T04:07:15.316Z,742.40
2019-03-23T04:08:15.285Z,599.10
2019-03-23T04:09:15.277Z,520.90
2019-03-23T04:10:15.227Z,543.70
2019-03-23T04:11:15.197Z,1019.90
2019-03-23T04:12:15.170Z,958.50
2019-03-23T04:13:15.135Z,1018.10
2019-03-23T04:14:15.106Z,996.40
2019-03-23T04:15:15.075Z,682.50
2019-03-23T04:16:15.046Z,622.10
2019-03-23T04:17:15.016Z,580.80
2019-03-23T04:18:14.998Z,501.80
2019-03-23T04:19:14.956Z,1098.80
2019-03-23T04:20:14.973Z,932.00
2019-03-23T04:21:14.893Z,1062.10
2019-03-23T04:22:14.863Z,456.00
2019-03-23T04:23:14.836Z,858.20
2019-03-23T04:24:14.805Z,537.80
2019-03-23T04:25:14.775Z,682.50
2019-03-23T04:26:14.745Z,960.50
2019-03-23T04:27:14.716Z,814.00
2019-03-23T04:28:14.684Z,719.40
2019-03-23T04:29:14.655Z,632.10
2019-03-23T04:30:14.629Z,840.10
2019-03-23T04:31:14.592Z,662.10
2019-03-23T04:32:14.561Z,653.10
2019-03-23T04:33:14.538Z,646.90
2019-03-23T04:34:14.502Z,632.80
2019-03-23T04:35:14.471Z,525.00
2019-03-23T04:36:14.440Z,519.30
2019-03-23T04:37:14.412Z,537.90
2019-03-23T04:38:22.728Z,795.10
2019-03-23T04:39:14.349Z,891.90
2019-03-23T04:40:14.323Z,553.90
2019-03-23T04:41:14.290Z,596.40
2019-03-23T04:42:14.259Z,420.00
2019-03-23T04:43:14.228Z,448.30
2019-03-23T04:44:14.198Z,408.20
2019-03-23T04:45:14.168Z,706.90
2019-03-23T04:46:14.137Z,445.80
2019-03-23T04:47:14.107Z,498.90
2019-03-23T04:48:14.077Z,410.30
2019-03-23T04:49:14.047Z,509.30
2019-03-23T04:50:14.017Z,695.10
2019-03-23T04:51:13.987Z,898.40
2019-03-23T04:52:13.956Z,818.40
2019-03-23T04:53:13.927Z,491.40
2019-03-23T04:54:13.894Z,584.80
2019-03-23T04:55:13.864Z,671.00
2019-03-23T04:56:13.836Z,609.30
2019-03-23T04:57:13.805Z,468.60
2019-03-23T04:58:13.811Z,551.60
2019-03-23T04:59:13.746Z,602.00
2019-03-23T05:00:13.713Z,644.70
2019-03-23T05:01:13.683Z,718.20
2019-03-23T05:02:13.652Z,620.00
2019-03-23T05:03:13.622Z,644.60
2019-03-23T05:04:13.591Z,658.60
2019-03-23T05:05:13.562Z,540.50
2019-03-23T05:06:13.531Z,492.80
2019-03-23T05:07:13.499Z,690.90
2019-03-23T05:08:13.468Z,447.10
2019-03-23T05:09:13.438Z,615.20
2019-03-23T05:10:13.407Z,534.10
2019-03-23T05:11:13.379Z,439.20
2019-03-23T05:12:13.348Z,523.60
2019-03-23T05:13:13.318Z,708.90
2019-03-23T05:14:13.284Z,662.90
2019-03-23T05:15:13.257Z,590.80
2019-03-23T05:16:13.225Z,752.80
2019-03-23T05:17:13.196Z,829.50
2019-03-23T05:18:13.163Z,772.60
2019-03-23T05:19:13.135Z,660.30
2019-03-23T05:20:13.104Z,622.70
2019-03-23T05:21:13.073Z,818.90
2019-03-23T05:22:13.043Z,818.30
2019-03-23T05:23:13.013Z,771.20
2019-03-23T05:24:12.983Z,705.30
2019-03-23T05:25:12.952Z,548.00
2019-03-23T05:26:12.925Z,483.50
2019-03-23T05:27:12.889Z,395.00
2019-03-23T05:28:12.861Z,212.30
2019-03-23T05:29:12.829Z,442.70
2019-03-23T05:30:12.799Z,398.00
2019-03-23T05:31:12.772Z,516.90
2019-03-23T05:32:12.737Z,450.70
2019-03-23T05:33:12.708Z,584.20
2019-03-23T05:34:12.676Z,534.70
2019-03-23T05:35:12.648Z,404.90
2019-03-23T05:36:12.617Z,618.40
2019-03-23T05:37:12.585Z,534.00
2019-03-23T05:38:12.555Z,557.00
2019-03-23T05:39:12.526Z,551.50
2019-03-23T05:40:12.499Z,591.50
2019-03-23T05:41:12.463Z,808.50
2019-03-23T05:42:12.433Z,736.00
2019-03-23T05:43:12.404Z,907.30
2019-03-23T05:44:12.379Z,861.30
2019-03-23T05:45:12.343Z,762.60
2019-03-23T05:46:12.313Z,673.70
2019-03-23T05:47:12.282Z,555.70
2019-03-23T05:48:12.251Z,762.90
2019-03-23T05:49:12.222Z,605.80
2019-03-23T05:50:12.195Z,586.40
2019-03-23T05:51:12.162Z,587.80
2019-03-23T05:52:12.130Z,642.30
2019-03-23T05:53:12.102Z,852.20
2019-03-23T05:54:12.070Z,687.30
2019-03-23T05:55:12.040Z,756.80
2019-03-23T05:56:12.014Z,506.70
2019-03-23T05:57:11.981Z,562.50
2019-03-23T05:58:11.949Z,601.30
2019-03-23T05:59:11.920Z,577.70
2019-03-23T06:00:11.889Z,726.10
2019-03-23T06:01:11.862Z,559.50
2019-03-23T06:02:11.829Z,537.00
2019-03-23T06:03:11.800Z,486.30
2019-03-23T06:04:11.771Z,846.40
2019-03-23T06:05:11.742Z,831.50
2019-03-23T06:06:11.709Z,753.30
2019-03-23T06:07:11.680Z,501.70
2019-03-23T06:08:11.648Z,367.30
2019-03-23T06:09:11.619Z,826.10
2019-03-23T06:10:11.592Z,704.50
2019-03-23T06:11:11.560Z,589.00
2019-03-23T06:12:11.530Z,719.70
2019-03-23T06:13:11.500Z,650.50
2019-03-23T06:14:11.471Z,559.20
2019-03-23T06:15:11.441Z,494.20
2019-03-23T06:16:11.409Z,584.50
2019-03-23T06:17:11.381Z,434.90
2019-03-23T06:18:11.349Z,621.40
2019-03-23T06:19:11.320Z,680.70
2019-03-23T06:20:11.292Z,688.50
2019-03-23T06:21:11.262Z,517.10
2019-03-23T06:22:11.231Z,479.70
2019-03-23T06:23:11.203Z,375.90
2019-03-23T06:24:11.173Z,667.10
2019-03-23T06:25:11.147Z,618.80
2019-03-23T06:26:11.114Z,696.40
2019-03-23T06:27:11.085Z,703.30
2019-03-23T06:28:11.056Z,347.60
2019-03-23T06:29:11.027Z,414.70
2019-03-23T06:30:10.996Z,354.20
2019-03-23T06:31:10.968Z,253.90
2019-03-23T06:32:10.939Z,388.80
2019-03-23T06:33:10.916Z,351.60
2019-03-23T06:34:10.882Z,239.60
2019-03-23T06:35:10.852Z,227.40
2019-03-23T06:36:10.823Z,241.30
2019-03-23T06:37:10.793Z,253.60
2019-03-23T06:38:10.764Z,287.60
2019-03-23T06:39:10.734Z,334.40
2019-03-23T06:40:10.706Z,350.10
2019-03-23T06:41:10.677Z,459.00
2019-03-23T06:42:10.650Z,354.20
2019-03-23T06:43:10.619Z,295.90
2019-03-23T06:44:10.592Z,260.90
2019-03-23T06:45:10.563Z,276.70
2019-03-23T06:46:10.533Z,248.60
2019-03-23T06:47:10.504Z,242.70
2019-03-23T06:48:10.476Z,182.90
2019-03-23T06:49:10.448Z,224.60
2019-03-23T06:50:10.418Z,226.40
2019-03-23T06:51:10.392Z,334.60
2019-03-23T06:52:10.362Z,311.40
2019-03-23T06:53:10.334Z,253.20
2019-03-23T06:54:10.304Z,233.80
2019-03-23T06:55:10.277Z,286.70
2019-03-23T06:56:10.248Z,375.80
2019-03-23T06:57:10.219Z,585.60
2019-03-23T06:58:10.190Z,436.90
2019-03-23T06:59:10.164Z,657.00
2019-03-23T07:00:10.135Z,571.30
2019-03-23T07:01:10.106Z,422.70
2019-03-23T07:02:10.077Z,555.70
2019-03-23T07:03:10.050Z,455.30
2019-03-23T07:04:10.022Z,478.80
2019-03-23T07:05:09.995Z,409.70
2019-03-23T07:06:09.966Z,476.60
2019-03-23T07:07:09.938Z,417.40
2019-03-23T07:08:09.909Z,430.60
2019-03-23T07:09:16.113Z,442.70
2019-03-23T07:10:09.852Z,448.80
2019-03-23T07:11:09.826Z,269.70
2019-03-23T07:12:09.796Z,402.50
2019-03-23T07:13:09.769Z,377.80
2019-03-23T07:14:09.740Z,488.60
2019-03-23T07:15:19.536Z,331.30
2019-03-23T07:16:09.682Z,360.40
2019-03-23T07:17:09.656Z,383.90
2019-03-23T07:18:09.625Z,308.70
2019-03-23T07:19:09.595Z,398.60
2019-03-23T07:20:09.568Z,405.40
2019-03-23T07:21:09.538Z,300.10
2019-03-23T07:22:09.509Z,316.20
2019-03-23T07:23:09.480Z,378.90
2019-03-23T07:24:09.452Z,386.60
2019-03-23T07:25:09.424Z,365.90
2019-03-23T07:26:09.394Z,384.70
2019-03-23T07:27:09.366Z,445.10
2019-03-23T07:28:09.338Z,343.80
2019-03-23T07:29:09.310Z,399.10
2019-03-23T07:30:09.289Z,398.50
2019-03-23T07:31:09.252Z,431.00
2019-03-23T07:32:09.224Z,381.60
2019-03-23T07:33:09.194Z,338.80
2019-03-23T07:34:09.166Z,298.70
2019-03-23T07:35:09.137Z,353.10
2019-03-23T07:36:09.109Z,341.90
2019-03-23T07:37:09.080Z,322.60
2019-03-23T07:38:09.050Z,333.90
2019-03-23T07:39:09.025Z,311.10
2019-03-23T07:40:08.995Z,260.10
2019-03-23T07:41:08.965Z,314.40
2019-03-23T07:42:08.936Z,287.50
2019-03-23T07:43:08.909Z,298.10
2019-03-23T07:44:08.880Z,296.40
2019-03-23T07:45:08.854Z,315.30
2019-03-23T07:46:08.823Z,297.70
2019-03-23T07:47:08.796Z,268.80
2019-03-23T07:48:08.765Z,292.00
2019-03-23T07:49:08.737Z,305.60
2019-03-23T07:50:08.708Z,289.20
2019-03-23T07:51:08.681Z,314.00
2019-03-23T07:52:08.653Z,289.70
2019-03-23T07:53:08.623Z,277.00
2019-03-23T07:54:08.595Z,275.30
2019-03-23T07:55:08.566Z,298.70
2019-03-23T07:56:08.538Z,288.40
2019-03-23T07:57:08.509Z,268.10
2019-03-23T07:58:08.479Z,267.90
2019-03-23T07:59:08.452Z,265.00
2019-03-23T08:00:08.423Z,207.40
2019-03-23T08:01:08.395Z,245.20
2019-03-23T08:02:08.364Z,263.50
2019-03-23T08:03:08.336Z,278.90
2019-03-23T08:04:08.310Z,274.50
2019-03-23T08:05:08.279Z,298.90
2019-03-23T08:06:08.249Z,274.40
2019-03-23T08:07:08.222Z,292.20
2019-03-23T08:08:08.193Z,250.30
2019-03-23T08:09:08.167Z,250.80
2019-03-23T08:10:08.139Z,276.20
2019-03-23T08:11:08.107Z,283.20
2019-03-23T08:12:08.081Z,283.20
2019-03-23T08:13:08.054Z,257.40
2019-03-23T08:14:08.021Z,252.50
2019-03-23T08:15:07.995Z,209.40
2019-03-23T08:16:07.968Z,253.60
2019-03-23T08:17:07.938Z,267.60
2019-03-23T08:18:07.913Z,239.90
2019-03-23T08:19:07.881Z,250.30
2019-03-23T08:20:07.852Z,253.30
2019-03-23T08:21:07.823Z,255.70
2019-03-23T08:22:07.797Z,245.90
2019-03-23T08:23:07.766Z,244.50
2019-03-23T08:24:07.737Z,218.20
2019-03-23T08:25:07.707Z,205.60
2019-03-23T08:26:07.679Z,207.20
2019-03-23T08:27:07.650Z,192.70
2019-03-23T08:28:07.623Z,191.40
2019-03-23T08:29:07.593Z,194.90
2019-03-23T08:30:07.566Z,172.60
2019-03-23T08:31:07.538Z,151.30
2019-03-23T08:32:07.507Z,159.20
2019-03-23T08:33:07.480Z,159.80
2019-03-23T08:34:07.449Z,152.00
2019-03-23T08:35:07.421Z,132.40
2019-03-23T08:36:07.393Z,137.70
2019-03-23T08:37:07.365Z,139.00
2019-03-23T08:38:07.335Z,147.20
2019-03-23T08:39:07.315Z,150.30
2019-03-23T08:40:07.279Z,140.80
2019-03-23T08:41:07.252Z,157.50
2019-03-23T08:42:07.221Z,152.00
2019-03-23T08:43:07.244Z,138.50
2019-03-23T08:44:07.165Z,142.00
2019-03-23T08:45:07.137Z,152.90
2019-03-23T08:46:07.107Z,148.70
2019-03-23T08:47:07.080Z,151.00
2019-03-23T08:48:07.051Z,142.00
2019-03-23T08:49:07.023Z,122.20
2019-03-23T08:50:06.997Z,138.00
2019-03-23T08:51:06.964Z,135.30
2019-03-23T08:52:06.939Z,137.30
2019-03-23T08:53:06.909Z,138.60
2019-03-23T08:54:06.879Z,142.80
2019-03-23T08:55:06.851Z,117.10
2019-03-23T08:56:06.825Z,136.30
2019-03-23T08:57:06.796Z,129.10
2019-03-23T08:58:06.768Z,130.50
2019-03-23T08:59:06.740Z,135.90
2019-03-23T09:00:06.710Z,135.60
2019-03-23T09:01:06.682Z,124.90
2019-03-23T09:02:06.654Z,122.00
2019-03-23T09:03:06.626Z,128.90
2019-03-23T09:04:06.598Z,116.20
2019-03-23T09:05:06.573Z,117.50
2019-03-23T09:06:06.541Z,93.10
2019-03-23T09:07:06.512Z,112.00
2019-03-23T09:08:06.486Z,122.90
2019-03-23T09:09:06.467Z,111.30
2019-03-23T09:10:06.432Z,111.60
2019-03-23T09:11:06.402Z,117.20
2019-03-23T09:12:06.374Z,110.90
2019-03-23T09:13:06.354Z,105.20
2019-03-23T09:14:06.317Z,110.00
2019-03-23T09:15:06.290Z,107.50
2019-03-23T09:16:06.263Z,108.50
2019-03-23T09:17:06.236Z,95.50
2019-03-23T09:18:06.209Z,99.50
2019-03-23T09:19:06.179Z,101.70
2019-03-23T09:20:06.151Z,105.30
2019-03-23T09:21:06.164Z,102.70
2019-03-23T09:22:06.095Z,106.20
2019-03-23T09:23:06.076Z,107.60
2019-03-23T09:24:06.041Z,97.90
2019-03-23T09:25:06.014Z,109.00
2019-03-23T09:26:05.985Z,94.90
2019-03-23T09:27:05.958Z,109.60
2019-03-23T09:28:05.929Z,103.60
2019-03-23T09:29:05.903Z,99.90
2019-03-23T09:30:05.888Z,100.90
2019-03-23T09:31:05.849Z,107.80
2019-03-23T09:32:05.822Z,107.10
2019-03-23T09:33:05.825Z,106.80
2019-03-23T09:34:05.767Z,111.00
2019-03-23T09:35:05.737Z,109.10
2019-03-23T09:36:05.711Z,105.80
2019-03-23T09:37:05.686Z,101.50
2019-03-23T09:38:05.654Z,96.50
2019-03-23T09:39:05.628Z,101.40
2019-03-23T09:40:10.844Z,85.00
2019-03-23T09:41:05.573Z,88.20
2019-03-23T09:42:07.090Z,95.40
2019-03-23T09:43:05.519Z,83.50
2019-03-23T09:44:05.495Z,88.20
2019-03-23T09:45:05.465Z,83.80
2019-03-23T09:46:05.444Z,84.70
2019-03-23T09:47:05.410Z,78.70
2019-03-23T09:48:05.382Z,82.70
2019-03-23T09:49:05.357Z,83.10
2019-03-23T09:50:05.329Z,86.60
2019-03-23T09:51:05.302Z,86.90
2019-03-23T09:52:05.273Z,80.50
2019-03-23T09:53:05.248Z,84.60
2019-03-23T09:54:05.220Z,81.00
2019-03-23T09:55:05.195Z,79.60
2019-03-23T09:56:05.166Z,78.60
2019-03-23T09:57:05.139Z,78.40
2019-03-23T09:58:05.111Z,83.30
2019-03-23T09:59:05.086Z,72.00
2019-03-23T10:00:05.060Z,73.30
2019-03-23T10:01:05.031Z,72.40
2019-03-23T10:02:05.005Z,71.10
2019-03-23T10:03:04.980Z,66.60
2019-03-23T10:04:04.952Z,68.60
2019-03-23T10:05:04.924Z,74.20
2019-03-23T10:06:05.971Z,70.40
2019-03-23T10:07:04.871Z,66.90
2019-03-23T10:08:04.844Z,68.20
2019-03-23T10:09:04.819Z,71.60
2019-03-23T10:10:04.791Z,64.40
2019-03-23T10:11:04.764Z,70.00
2019-03-23T10:12:04.737Z,66.80
2019-03-23T10:13:04.710Z,66.30
2019-03-23T10:14:04.685Z,69.00
2019-03-23T10:15:04.662Z,68.60
2019-03-23T10:16:04.631Z,68.20
2019-03-23T10:17:04.606Z,66.30
2019-03-23T10:18:04.579Z,59.90
2019-03-23T10:19:04.553Z,58.70
2019-03-23T10:20:04.529Z,60.40
2019-03-23T10:21:04.502Z,60.60
2019-03-23T10:22:04.475Z,63.30
2019-03-23T10:23:04.447Z,59.30
2019-03-23T10:24:04.424Z,60.00
2019-03-23T10:25:04.399Z,66.50
2019-03-23T10:26:04.370Z,60.20
2019-03-23T10:27:04.345Z,60.00
2019-03-23T10:28:04.319Z,62.00
2019-03-23T10:29:04.293Z,61.70
2019-03-23T10:30:04.266Z,61.10
2019-03-23T10:31:04.242Z,61.70
2019-03-23T10:32:04.215Z,60.80
2019-03-23T10:33:04.191Z,67.30
2019-03-23T10:34:04.165Z,65.50
2019-03-23T10:35:04.140Z,62.40
2019-03-23T10:36:04.113Z,65.90
2019-03-23T10:37:04.092Z,70.60
2019-03-23T10:38:04.062Z,65.10
2019-03-23T10:39:04.037Z,68.30
2019-03-23T10:40:04.011Z,66.20
2019-03-23T10:41:03.987Z,69.50
2019-03-23T10:42:03.959Z,73.70
2019-03-23T10:43:03.934Z,74.60
2019-03-23T10:44:03.910Z,74.00
2019-03-23T10:45:03.883Z,74.80
2019-03-23T10:46:03.910Z,74.60
2019-03-23T10:47:03.832Z,76.90
2019-03-23T10:48:03.806Z,81.80
2019-03-23T10:49:03.783Z,77.60
2019-03-23T10:50:03.754Z,75.50
2019-03-23T10:51:03.730Z,75.30
2019-03-23T10:52:03.708Z,74.60
2019-03-23T10:53:03.682Z,78.30
2019-03-23T10:54:04.151Z,73.90
2019-03-23T10:55:03.629Z,78.40
2019-03-23T10:56:03.603Z,83.80
2019-03-23T10:57:03.579Z,79.80
2019-03-23T10:58:03.555Z,81.30
2019-03-23T10:59:03.526Z,84.40
2019-03-23T11:00:03.503Z,82.40
2019-03-23T11:01:03.477Z,83.90
2019-03-23T11:02:03.451Z,76.80
2019-03-23T11:03:03.429Z,77.10
2019-03-23T11:04:03.400Z,77.90
2019-03-23T11:05:03.376Z,76.00
2019-03-23T11:06:03.351Z,76.60
2019-03-23T11:07:03.326Z,69.60
2019-03-23T11:08:03.301Z,74.60
2019-03-23T11:09:03.277Z,75.60
2019-03-23T11:10:03.254Z,71.60
2019-03-23T11:11:03.229Z,69.30
2019-03-23T11:12:03.256Z,71.00
2019-03-23T11:13:03.178Z,59.60
2019-03-23T11:14:03.153Z,64.00
2019-03-23T11:15:03.127Z,63.90
2019-03-23T11:16:03.105Z,65.80
2019-03-23T11:17:03.078Z,65.80
2019-03-23T11:18:03.055Z,69.00
2019-03-23T11:19:09.578Z,67.90
2019-03-23T11:20:03.006Z,72.20
2019-03-23T11:21:02.983Z,68.10
2019-03-23T11:22:02.955Z,64.90
2019-03-23T11:23:02.933Z,65.50
2019-03-23T11:24:02.909Z,60.80
2019-03-23T11:25:02.885Z,62.10
2019-03-23T11:26:02.859Z,64.90
2019-03-23T11:27:02.835Z,67.90
2019-03-23T11:28:02.812Z,66.40
2019-03-23T11:29:02.794Z,67.10
2019-03-23T11:30:02.763Z,67.90
2019-03-23T11:31:02.738Z,69.00
2019-03-23T11:32:02.714Z,71.90
2019-03-23T11:33:02.708Z,75.40
2019-03-23T11:34:02.665Z,74.70
2019-03-23T11:35:02.718Z,76.00
2019-03-23T11:36:02.621Z,79.20
2019-03-23T11:37:02.593Z,78.90
2019-03-23T11:38:02.682Z,80.60
2019-03-23T11:39:02.547Z,77.50
2019-03-23T11:40:02.522Z,77.90
2019-03-23T11:41:02.499Z,75.70
2019-03-23T11:42:02.472Z,78.70
2019-03-23T11:43:02.452Z,76.30
2019-03-23T11:44:02.428Z,79.70
2019-03-23T11:45:02.410Z,78.00
2019-03-23T11:46:02.379Z,71.20
2019-03-23T11:47:02.354Z,67.40
2019-03-23T11:48:02.383Z,71.70
2019-03-23T11:49:02.308Z,67.40
2019-03-23T11:50:02.283Z,62.10
2019-03-23T11:51:02.259Z,61.10
2019-03-23T11:52:02.236Z,65.00
2019-03-23T11:53:02.214Z,66.60
2019-03-23T11:54:02.190Z,66.10
2019-03-23T11:55:02.168Z,66.30
2019-03-23T11:56:02.143Z,62.20
2019-03-23T11:57:02.134Z,63.80
2019-03-23T11:58:02.097Z,66.90
2019-03-23T11:59:02.073Z,64.00
2019-03-23T12:00:02.056Z,65.10
2019-03-23T12:01:02.029Z,66.10
2019-03-23T12:02:02.005Z,63.80
2019-03-23T12:03:01.985Z,62.70
2019-03-23T12:04:01.970Z,70.00
2019-03-23T12:05:01.957Z,61.70
2019-03-23T12:06:01.917Z,60.90
2019-03-23T12:07:01.896Z,65.30
2019-03-23T12:08:01.873Z,61.20
2019-03-23T12:09:01.853Z,63.70
2019-03-23T12:10:01.827Z,65.70
2019-03-23T12:11:03.084Z,64.40
2019-03-23T12:12:01.782Z,61.90
2019-03-23T12:13:01.761Z,62.90
2019-03-23T12:14:01.739Z,63.20
2019-03-23T12:15:01.720Z,67.00
2019-03-23T12:16:01.696Z,63.40
2019-03-23T12:17:01.673Z,65.20
2019-03-23T12:18:01.651Z,62.20
2019-03-23T12:19:01.630Z,60.70
2019-03-23T12:20:01.611Z,64.20
2019-03-23T12:21:01.587Z,66.10
2019-03-23T12:22:01.565Z,66.90
2019-03-23T12:23:01.545Z,64.10
2019-03-23T12:24:01.521Z,61.90
2019-03-23T12:25:01.511Z,66.70
2019-03-23T12:26:01.478Z,60.90
2019-03-23T12:27:01.457Z,62.30
2019-03-23T12:28:01.488Z,72.60
2019-03-23T12:29:01.413Z,68.80
2019-03-23T12:30:07.015Z,70.70
2019-03-23T12:31:01.372Z,68.00
2019-03-23T12:32:01.347Z,69.30
2019-03-23T12:33:01.324Z,68.10